« Back
NWS Peachtree City, Ga » Text Product » ATL Terminal Aerodrome Forecast


Printer-friendly Version
Current Version              Previous Versions:   1  2  3  4  5  6  7  8  9  

Terminal Aerodrome Forecast

834
FTUS42 KFFC 250933 AAB
TAFATL
TAF AMD
KATL 250933Z 2510/2612 25004KT P6SM SKC
     FM251500 21008KT P6SM SCT250
     FM252100 19008KT P6SM SCT120 OVC200
     FM260000 20006KT P6SM SCT035 OVC050
     FM260500 24007KT P6SM OVC025
     FM260900 27008KT P6SM -RA OVC015=



USA.gov is the U.S. government's official web portal to all federal, state and local government web resources and services.